Time;durP1;ratioP1;P1;durP2;ratioP2;P2;SDS_P1;SDS_P2;PMS_P1;PMS_P2;Temp;Humidity;BMP_temperature;BMP_pressure;BME280_temperature;BME280_humidity;BME280_pressure;Samples;Min_cycle;Max_cycle;Signal;HPM_P1;HPM_P2
2023/01/20 00:02:06;;;;;;;82.25;30.90;;;;;;;0.61;100.00;100984.81;5039515;28;20033;-40
2023/01/20 00:04:32;;;;;;;73.15;28.65;;;;;;;0.63;100.00;100974.94;5046754;28;20036;-41
2023/01/20 00:06:57;;;;;;;79.90;31.25;;;;;;;0.64;100.00;100981.94;5033272;28;20384;-41
2023/01/20 00:09:22;;;;;;;82.35;31.23;;;;;;;0.62;100.00;100977.69;5045050;28;20115;-41
2023/01/20 00:11:48;;;;;;;86.85;30.92;;;;;;;0.61;100.00;100982.16;5049471;28;20381;-41
2023/01/20 00:14:13;;;;;;;78.18;32.28;;;;;;;0.60;100.00;100980.44;5035081;28;20369;-40
2023/01/20 00:16:38;;;;;;;86.47;30.48;;;;;;;0.58;100.00;100979.75;5029355;28;20025;-40
2023/01/20 00:19:04;;;;;;;85.90;31.13;;;;;;;0.54;100.00;100975.63;5042029;28;20400;-40
2023/01/20 00:21:29;;;;;;;83.68;30.27;;;;;;;0.57;100.00;100985.97;5048967;28;20110;-40
2023/01/20 00:23:55;;;;;;;80.38;30.45;;;;;;;0.56;100.00;100991.41;5049130;28;20394;-40
2023/01/20 00:26:22;;;;;;;80.07;28.67;;;;;;;0.54;100.00;100980.91;5049413;28;20045;-41
2023/01/20 00:28:48;;;;;;;81.40;30.08;;;;;;;0.53;100.00;100986.34;5039350;28;20037;-40
2023/01/20 00:31:19;;;;;;;80.28;30.45;;;;;;;0.51;100.00;100991.75;5028323;28;20026;-40
2023/01/20 00:33:46;;;;;;;71.60;28.02;;;;;;;0.44;100.00;100985.19;5032651;28;20028;-40
2023/01/20 00:36:12;;;;;;;83.07;29.65;;;;;;;0.44;100.00;100990.50;5047158;28;20048;-40
2023/01/20 00:38:38;;;;;;;73.65;28.38;;;;;;;0.41;100.00;100988.91;5040189;28;20384;-39
2023/01/20 00:41:04;;;;;;;78.25;29.38;;;;;;;0.42;100.00;100992.41;5029205;28;20029;-41
2023/01/20 00:43:29;;;;;;;73.40;29.13;;;;;;;0.41;100.00;100996.88;5046993;28;20036;-40
2023/01/20 00:45:55;;;;;;;79.45;28.88;;;;;;;0.41;100.00;100991.56;5047047;28;20032;-40
2023/01/20 00:48:20;;;;;;;83.75;28.38;;;;;;;0.36;100.00;101003.47;5037268;28;20535;-40
2023/01/20 00:50:45;;;;;;;81.82;29.00;;;;;;;0.30;100.00;100998.63;5039056;28;20036;-40
2023/01/20 00:53:11;;;;;;;69.70;28.40;;;;;;;0.22;100.00;100997.38;5051318;28;20063;-39
2023/01/20 00:55:36;;;;;;;72.10;27.60;;;;;;;0.18;100.00;101000.34;5040794;28;20106;-38
2023/01/20 00:58:01;;;;;;;79.47;29.08;;;;;;;0.14;100.00;101005.03;5044046;28;20033;-41
2023/01/20 01:00:27;;;;;;;77.43;28.42;;;;;;;0.15;100.00;101009.34;5034131;28;20097;-40
2023/01/20 01:02:52;;;;;;;69.55;27.60;;;;;;;0.15;100.00;101001.41;5033565;28;20071;-40
2023/01/20 01:05:17;;;;;;;79.50;28.45;;;;;;;0.16;100.00;101008.41;5035688;28;20037;-40
2023/01/20 01:07:43;;;;;;;76.93;29.83;;;;;;;0.15;100.00;101004.06;5035882;28;20033;-41
2023/01/20 01:10:09;;;;;;;82.82;26.80;;;;;;;0.16;100.00;101011.06;5032525;28;20034;-40
2023/01/20 01:12:34;;;;;;;80.63;28.50;;;;;;;0.18;100.00;101009.13;5031961;28;20025;-41
2023/01/20 01:15:00;;;;;;;86.50;28.88;;;;;;;0.24;100.00;101013.16;5032886;28;20025;-40
2023/01/20 01:17:25;;;;;;;81.95;29.50;;;;;;;0.29;100.00;101010.16;5034421;28;20025;-39
2023/01/20 01:19:53;;;;;;;75.20;28.38;;;;;;;0.29;100.00;101018.09;5032780;28;20025;-41
2023/01/20 01:22:19;;;;;;;75.25;27.70;;;;;;;0.31;100.00;101021.47;5032567;28;20033;-40
2023/01/20 01:24:45;;;;;;;76.43;27.88;;;;;;;0.35;100.00;101029.09;5032360;28;20029;-40
2023/01/20 01:27:10;;;;;;;76.80;27.42;;;;;;;0.37;100.00;101026.31;5032892;28;20025;-40
2023/01/20 01:29:36;;;;;;;83.82;28.52;;;;;;;0.40;100.00;101032.25;5032099;28;20063;-40
2023/01/20 01:32:02;;;;;;;79.80;28.88;;;;;;;0.45;100.00;101031.94;5032091;28;20025;-41
2023/01/20 01:34:27;;;;;;;67.20;26.30;;;;;;;0.51;100.00;101026.16;5032601;28;20170;-41
2023/01/20 01:36:52;;;;;;;75.32;27.55;;;;;;;0.56;100.00;101039.91;5046216;28;20119;-40
2023/01/20 01:39:18;;;;;;;72.07;25.17;;;;;;;0.61;100.00;101043.09;5033122;28;20037;-40
2023/01/20 01:41:43;;;;;;;72.78;26.00;;;;;;;0.62;100.00;101047.41;5041788;28;20036;-40
2023/01/20 01:44:11;;;;;;;72.70;25.20;;;;;;;0.62;100.00;101031.50;5043600;28;20029;-40
2023/01/20 01:46:37;;;;;;;76.07;26.73;;;;;;;0.68;100.00;101050.56;5051078;28;20025;-40
2023/01/20 01:49:10;;;;;;;68.68;24.17;;;;;;;0.73;100.00;101048.44;5032622;28;20521;-40
2023/01/20 01:51:43;;;;;;;68.13;23.88;;;;;;;0.76;100.00;101050.84;5044474;28;20234;-40
2023/01/20 01:54:12;;;;;;;63.63;23.38;;;;;;;0.79;100.00;101043.53;5049057;28;20069;-40
2023/01/20 01:56:40;;;;;;;64.00;21.83;;;;;;;0.80;100.00;101039.06;5047270;28;20457;-40
2023/01/20 01:59:06;;;;;;;64.63;23.15;;;;;;;0.76;100.00;101042.91;5045851;28;20341;-41
2023/01/20 02:01:34;;;;;;;62.97;21.23;;;;;;;0.74;100.00;101044.81;5048420;28;20179;-40
2023/01/20 02:04:03;;;;;;;48.60;21.05;;;;;;;0.72;100.00;101052.03;5045454;28;20069;-40
2023/01/20 02:06:31;;;;;;;55.78;22.08;;;;;;;0.65;100.00;101049.81;5048088;28;20029;-39
2023/01/20 02:08:58;;;;;;;56.92;22.20;;;;;;;0.63;100.00;101049.13;5045521;28;20443;-40
2023/01/20 02:11:24;;;;;;;50.45;20.17;;;;;;;0.59;100.00;101047.63;5033222;28;20457;-41
2023/01/20 02:13:49;;;;;;;59.05;21.73;;;;;;;0.52;100.00;101045.53;5034451;28;20037;-41
2023/01/20 02:16:30;;;;;;;66.53;22.40;;;;;;;0.47;100.00;101048.53;5046364;28;20128;-40
2023/01/20 02:19:20;;;;;;;61.72;22.05;;;;;;;0.45;100.00;101055.75;5037630;28;20045;-41
2023/01/20 02:22:21;;;;;;;55.75;20.95;;;;;;;0.35;100.00;101044.13;5032065;28;20041;-40
2023/01/20 02:25:06;;;;;;;54.95;20.88;;;;;;;0.33;100.00;101046.03;5048869;28;20033;-41
2023/01/20 02:27:45;;;;;;;57.83;20.73;;;;;;;0.33;100.00;101051.34;5050933;28;20048;-39
2023/01/20 02:30:48;;;;;;;54.08;20.00;;;;;;;0.32;100.00;101045.22;5031030;28;20033;-40
2023/01/20 02:33:25;;;;;;;51.13;17.75;;;;;;;0.28;100.00;101038.44;5030421;28;20109;-41
2023/01/20 02:36:10;;;;;;;39.65;17.02;;;;;;;0.26;100.00;101039.50;5043799;28;20044;-40
2023/01/20 02:38:46;;;;;;;50.40;17.40;;;;;;;0.30;100.00;101035.69;5041149;28;20476;-40
2023/01/20 02:41:21;;;;;;;43.60;16.77;;;;;;;0.37;100.00;101031.63;5040302;28;20029;-40
2023/01/20 02:43:56;;;;;;;46.78;17.73;;;;;;;0.41;100.00;101027.81;5031972;28;20033;-41
2023/01/20 02:46:26;;;;;;;42.50;17.40;;;;;;;0.41;100.00;101030.44;5042062;28;20476;-41
2023/01/20 02:48:55;;;;;;;43.47;17.27;;;;;;;0.42;100.00;101024.19;5034182;28;20499;-40
2023/01/20 02:51:39;;;;;;;43.58;16.05;;;;;;;0.46;100.00;101030.13;5029356;28;20033;-41
2023/01/20 02:54:07;;;;;;;45.53;16.30;;;;;;;0.47;100.00;101037.09;5033156;28;20033;-40
2023/01/20 02:56:33;;;;;;;44.83;16.55;;;;;;;0.49;100.00;101041.31;5035506;28;20025;-40
2023/01/20 02:59:08;;;;;;;42.30;16.52;;;;;;;0.51;100.00;101036.75;5040370;28;20087;-41
2023/01/20 03:01:40;;;;;;;42.97;16.92;;;;;;;0.54;100.00;101038.34;5028825;28;20420;-40
2023/01/20 03:04:08;;;;;;;39.92;15.43;;;;;;;0.55;100.00;101035.56;5045794;28;20114;-40
2023/01/20 03:06:39;;;;;;;44.57;16.17;;;;;;;0.58;100.00;101040.66;5031111;28;20456;-40
2023/01/20 03:09:09;;;;;;;36.55;14.73;;;;;;;0.63;100.00;101038.53;5038953;28;20288;-40
2023/01/20 03:11:37;;;;;;;34.67;14.27;;;;;;;0.67;100.00;101035.66;5035545;28;20029;-40
2023/01/20 03:14:10;;;;;;;37.50;14.60;;;;;;;0.69;100.00;101033.72;5046461;28;20120;-40
2023/01/20 03:16:35;;;;;;;36.55;15.52;;;;;;;0.71;100.00;101039.75;5045606;28;20126;-40
2023/01/20 03:19:01;;;;;;;42.08;14.25;;;;;;;0.71;100.00;101015.91;5045937;28;20105;-39
2023/01/20 03:21:26;;;;;;;36.95;14.27;;;;;;;0.74;100.00;101027.13;5049584;28;20036;-38
2023/01/20 03:23:54;;;;;;;41.05;14.98;;;;;;;0.79;100.00;101021.47;5047419;28;20060;-39
2023/01/20 03:26:21;;;;;;;33.50;14.38;;;;;;;0.85;100.00;101021.88;5029099;28;20025;-40
2023/01/20 03:28:47;;;;;;;33.13;13.40;;;;;;;0.87;100.00;101016.47;5031343;28;20125;-40
2023/01/20 03:31:25;;;;;;;33.72;13.60;;;;;;;0.92;100.00;101019.59;5047481;28;20029;-40
2023/01/20 03:33:53;;;;;;;34.15;13.70;;;;;;;0.97;100.00;101017.44;5048491;28;20033;-40
2023/01/20 03:36:19;;;;;;;;;;;;;;;1.01;100.00;101018.06;5036022;28;20067;-40
2023/01/20 03:38:45;;;;;;;29.92;12.60;;;;;;;1.06;100.00;101018.56;5029412;28;19953;-41
2023/01/20 03:41:21;;;;;;;27.50;12.80;;;;;;;1.08;100.00;101027.25;5049172;28;20029;-40
2023/01/20 03:44:01;;;;;;;30.00;13.10;;;;;;;1.11;100.00;101021.72;5044308;28;20032;-40
2023/01/20 03:46:34;;;;;;;26.45;12.98;;;;;;;1.07;100.00;101029.03;5039958;28;20489;-41
2023/01/20 03:49:25;;;;;;;30.58;13.07;;;;;;;1.09;100.00;101024.47;5028075;28;20527;-40
2023/01/20 03:51:58;;;;;;;30.80;12.65;;;;;;;1.09;100.00;101023.63;5047811;28;20041;-39
2023/01/20 03:54:27;;;;;;;35.55;14.13;;;;;;;1.09;100.00;101019.16;5033078;28;20488;-40
2023/01/20 03:56:57;;;;;;;34.10;14.23;;;;;;;1.12;100.00;101017.25;5046062;28;20033;-40
2023/01/20 03:59:22;;;;;;;39.72;15.10;;;;;;;1.10;100.00;101020.84;5028485;28;20043;-39
2023/01/20 04:01:48;;;;;;;37.47;15.57;;;;;;;1.12;100.00;101022.56;5046485;28;20395;-41
2023/01/20 04:04:16;;;;;;;37.47;16.27;;;;;;;1.14;100.00;101024.13;5039913;28;20770;-41
2023/01/20 04:06:42;;;;;;;;;;;;;;;1.17;100.00;101031.84;5042798;28;20040;-41
2023/01/20 04:09:10;;;;;;;44.22;16.30;;;;;;;1.22;100.00;101016.44;5035317;28;19924;-40
2023/01/20 04:11:35;;;;;;;40.00;16.90;;;;;;;1.29;100.00;101019.44;5035864;28;20026;-41
2023/01/20 04:14:01;;;;;;;47.30;17.75;;;;;;;1.28;100.00;101018.59;5038933;28;20112;-40
2023/01/20 04:16:26;;;;;;;46.55;18.13;;;;;;;1.23;100.00;101019.94;5034798;28;20021;-41
2023/01/20 04:18:52;;;;;;;48.15;18.42;;;;;;;1.20;100.00;101015.69;5047208;28;20029;-41
2023/01/20 04:21:32;;;;;;;48.08;17.58;;;;;;;1.19;100.00;101013.19;5035046;28;20029;-41
2023/01/20 04:24:20;;;;;;;47.55;18.60;;;;;;;1.22;100.00;101012.94;5044467;28;20048;-41
2023/01/20 04:26:45;;;;;;;;;;;;;;;1.29;100.00;101020.31;5050301;28;20559;-42
2023/01/20 04:29:11;;;;;;;48.53;18.67;;;;;;;1.30;100.00;101022.00;5050387;28;19919;-42
2023/01/20 04:31:36;;;;;;;49.08;18.65;;;;;;;1.32;100.00;101021.88;5050850;28;20127;-42
2023/01/20 04:34:03;;;;;;;52.90;18.52;;;;;;;1.28;100.00;101025.72;5033544;28;20029;-42
2023/01/20 04:36:28;;;;;;;55.78;20.15;;;;;;;1.30;100.00;101034.41;5036820;28;20503;-42
2023/01/20 04:38:54;;;;;;;56.47;20.65;;;;;;;1.29;100.00;101033.56;5047157;28;20045;-42
2023/01/20 04:41:19;;;;;;;57.38;21.42;;;;;;;1.31;100.00;101033.44;5038646;28;20524;-43
2023/01/20 04:43:45;;;;;;;63.72;22.00;;;;;;;1.23;100.00;101035.84;5036504;28;20526;-43
2023/01/20 04:46:11;;;;;;;64.05;21.83;;;;;;;1.23;100.00;101038.47;5032080;28;20305;-44
2023/01/20 04:48:37;;;;;;;57.17;21.17;;;;;;;1.20;100.00;101052.81;5031538;28;20693;-44
2023/01/20 04:51:03;;;;;;;72.35;22.02;;;;;;;1.20;100.00;101054.63;5033418;28;20096;-44
2023/01/20 04:53:29;;;;;;;73.38;23.65;;;;;;;1.16;100.00;101061.97;5037760;28;20036;-44
2023/01/20 04:55:54;;;;;;;60.58;22.05;;;;;;;1.15;100.00;101072.69;5033434;28;20430;-44
2023/01/20 04:58:20;;;;;;;77.53;23.02;;;;;;;1.09;100.00;101074.84;5040862;28;20032;-45
2023/01/20 05:00:45;;;;;;;62.10;21.77;;;;;;;1.06;100.00;101080.38;5045700;28;20503;-45
2023/01/20 05:03:10;;;;;;;62.45;20.65;;;;;;;0.99;100.00;101086.25;5039198;28;20048;-46
2023/01/20 05:05:36;;;;;;;56.65;20.42;;;;;;;0.95;100.00;101085.63;5045660;28;20384;-46
2023/01/20 05:08:03;;;;;;;51.50;18.85;;;;;;;0.90;100.00;101071.88;5034243;28;20057;-45
2023/01/20 05:10:29;;;;;;;55.05;18.98;;;;;;;0.88;100.00;101073.78;5032886;28;20083;-45
2023/01/20 05:12:55;;;;;;;53.92;19.90;;;;;;;0.87;100.00;101067.66;5040219;28;20045;-46
2023/01/20 05:15:20;;;;;;;38.00;13.95;;;;;;;0.90;100.00;101066.56;5042994;28;20480;-44
2023/01/20 05:17:45;;;;;;;45.97;15.32;;;;;;;0.94;100.00;101078.63;5044667;28;20067;-46
2023/01/20 05:20:11;;;;;;;44.38;14.55;;;;;;;0.94;100.00;101081.28;5045839;28;20064;-45
2023/01/20 05:22:36;;;;;;;50.70;15.32;;;;;;;0.95;100.00;101071.50;5048318;28;20039;-45
2023/01/20 05:25:02;;;;;;;38.30;13.52;;;;;;;0.99;100.00;101070.34;5048515;28;20059;-44
2023/01/20 05:27:27;;;;;;;35.83;12.45;;;;;;;1.03;100.00;101083.25;5048006;28;20056;-44
2023/01/20 05:29:52;;;;;;;36.92;11.82;;;;;;;1.06;100.00;101092.78;5024812;28;20765;-45
2023/01/20 05:32:18;;;;;;;32.15;12.35;;;;;;;1.06;100.00;101083.03;5029007;28;20044;-44
2023/01/20 05:34:43;;;;;;;45.03;13.20;;;;;;;1.06;100.00;101088.31;5041106;28;20498;-45
2023/01/20 05:37:08;;;;;;;49.28;14.68;;;;;;;1.05;100.00;101086.66;5038057;28;20522;-45
2023/01/20 05:39:34;;;;;;;41.53;15.68;;;;;;;1.03;100.00;101083.25;5040609;28;20480;-46
2023/01/20 05:42:00;;;;;;;43.13;15.63;;;;;;;1.00;100.00;101082.63;5044978;28;20035;-46
2023/01/20 05:44:25;;;;;;;45.58;17.02;;;;;;;0.99;100.00;101075.63;5041083;28;20298;-45
2023/01/20 05:46:51;;;;;;;50.22;16.08;;;;;;;0.97;100.00;101089.00;5041100;28;20029;-45
2023/01/20 05:49:16;;;;;;;44.67;16.35;;;;;;;0.96;100.00;101082.00;5038213;28;20090;-45
2023/01/20 05:51:41;;;;;;;52.00;16.15;;;;;;;0.98;100.00;101081.91;5034753;28;20026;-44
2023/01/20 05:54:07;;;;;;;49.22;16.25;;;;;;;1.00;100.00;101087.91;5036344;28;20495;-43
2023/01/20 05:56:32;;;;;;;50.92;16.85;;;;;;;1.01;100.00;101095.78;5042317;28;20360;-43
2023/01/20 05:58:58;;;;;;;54.60;17.98;;;;;;;1.05;100.00;101094.59;5040315;28;20038;-44
2023/01/20 06:01:23;;;;;;;50.22;17.70;;;;;;;1.01;100.00;101095.78;5031472;28;20033;-46
2023/01/20 06:03:48;;;;;;;56.72;16.90;;;;;;;0.98;100.00;101100.47;5051010;28;20512;-45
2023/01/20 06:06:16;;;;;;;49.47;16.67;;;;;;;0.85;100.00;101100.53;5039995;28;20033;-45
2023/01/20 06:08:42;;;;;;;47.58;16.65;;;;;;;0.71;100.00;101087.41;5032257;28;20105;-45
2023/01/20 06:11:07;;;;;;;46.63;16.13;;;;;;;0.68;100.00;101090.31;5041642;28;20036;-45
2023/01/20 06:13:34;;;;;;;56.60;18.17;;;;;;;0.56;100.00;101076.16;5042239;28;20085;-46
2023/01/20 06:16:00;;;;;;;51.55;17.88;;;;;;;0.42;100.00;101069.19;5030023;28;20037;-46
2023/01/20 06:18:25;;;;;;;50.50;17.10;;;;;;;0.45;100.00;101076.94;5032669;28;20029;-48
2023/01/20 06:20:55;;;;;;;53.60;17.85;;;;;;;0.45;100.00;101066.34;5039639;28;20036;-46
2023/01/20 06:23:20;;;;;;;51.90;18.23;;;;;;;0.39;100.00;101077.38;5035339;28;20032;-46
2023/01/20 06:25:46;;;;;;;48.45;17.65;;;;;;;0.42;100.00;101087.72;5023383;28;20142;-46
2023/01/20 06:28:11;;;;;;;48.47;17.45;;;;;;;0.44;100.00;101091.13;5039038;28;20035;-46
2023/01/20 06:30:37;;;;;;;53.60;17.10;;;;;;;0.46;100.00;101093.66;5040052;28;20036;-45
2023/01/20 06:33:07;;;;;;;51.38;18.42;;;;;;;0.46;100.00;101097.16;5038431;28;20041;-44
2023/01/20 06:35:32;;;;;;;50.95;18.27;;;;;;;0.47;100.00;101090.06;5040990;28;20132;-45
2023/01/20 06:37:58;;;;;;;55.15;19.10;;;;;;;0.50;100.00;101095.13;5045082;28;20324;-46
2023/01/20 06:40:23;;;;;;;65.00;18.83;;;;;;;0.51;100.00;101105.63;5044120;28;20021;-47
2023/01/20 06:42:48;;;;;;;59.78;19.45;;;;;;;0.53;100.00;101111.66;5031232;28;20037;-46
2023/01/20 06:45:15;;;;;;;55.00;19.48;;;;;;;0.57;100.00;101117.56;5037541;28;20041;-46
2023/01/20 06:47:40;;;;;;;58.33;20.02;;;;;;;0.59;100.00;101127.09;5049810;28;20025;-47
2023/01/20 06:50:06;;;;;;;48.70;18.20;;;;;;;0.59;100.00;101111.19;5047344;28;20554;-46
2023/01/20 06:52:32;;;;;;;57.72;20.13;;;;;;;0.53;100.00;101113.47;5049391;28;20521;-47
2023/01/20 06:54:57;;;;;;;56.20;19.88;;;;;;;0.50;100.00;101103.94;5040067;28;20123;-47
2023/01/20 06:57:22;;;;;;;47.63;19.23;;;;;;;0.48;100.00;101103.19;5030536;28;20509;-46
2023/01/20 06:59:48;;;;;;;51.75;20.05;;;;;;;0.48;100.00;101113.78;5031564;28;20535;-46
2023/01/20 07:02:13;;;;;;;55.25;20.38;;;;;;;0.49;100.00;101110.16;5031162;28;20021;-45
2023/01/20 07:04:38;;;;;;;61.35;20.92;;;;;;;0.50;100.00;101111.88;5046664;28;20040;-45
2023/01/20 07:07:04;;;;;;;55.75;20.65;;;;;;;0.50;100.00;101116.31;5048052;28;20041;-45
2023/01/20 07:09:29;;;;;;;57.53;19.88;;;;;;;0.51;100.00;101118.84;5033093;28;20126;-45
2023/01/20 07:11:54;;;;;;;47.28;19.42;;;;;;;0.53;100.00;101114.31;5039235;28;20025;-45
2023/01/20 07:14:20;;;;;;;54.72;21.73;;;;;;;0.57;100.00;101121.06;5037359;28;20196;-45
2023/01/20 07:16:46;;;;;;;53.33;22.13;;;;;;;0.60;100.00;101123.47;5030406;28;20241;-46
2023/01/20 07:19:11;;;;;;;55.47;21.50;;;;;;;0.60;100.00;101126.13;5037761;28;20431;-46
2023/01/20 07:21:37;;;;;;;52.03;19.67;;;;;;;0.59;100.00;101119.16;5045606;28;20047;-45
2023/01/20 07:24:02;;;;;;;61.58;21.77;;;;;;;0.64;100.00;101119.66;5049039;28;20052;-45
2023/01/20 07:26:28;;;;;;;50.78;20.33;;;;;;;0.65;100.00;101124.00;5041178;28;20021;-44
2023/01/20 07:28:53;;;;;;;51.20;20.73;;;;;;;0.71;100.00;101116.56;5030726;28;20029;-44
2023/01/20 07:31:24;;;;;;;62.40;23.02;;;;;;;0.74;100.00;101113.69;5030372;28;20149;-45
2023/01/20 07:33:49;;;;;;;54.95;21.35;;;;;;;0.77;100.00;101116.13;5038488;28;20487;-46
2023/01/20 07:36:15;;;;;;;53.05;21.70;;;;;;;0.78;100.00;101115.16;5049105;28;20140;-45
2023/01/20 07:38:41;;;;;;;58.88;23.50;;;;;;;0.78;100.00;101120.47;5047605;28;20025;-45
2023/01/20 07:41:14;;;;;;;54.22;20.88;;;;;;;0.79;100.00;101138.03;5040958;28;20077;-45
2023/01/20 07:43:41;;;;;;;56.05;21.48;;;;;;;0.80;100.00;101155.66;5042236;28;20021;-46
2023/01/20 07:46:07;;;;;;;45.95;20.67;;;;;;;0.83;100.00;101160.72;5043492;28;20044;-47
2023/01/20 07:48:32;;;;;;;47.53;19.77;;;;;;;0.95;100.00;101164.25;5036042;28;20425;-46
2023/01/20 07:51:06;;;;;;;45.67;20.42;;;;;;;0.97;100.00;101183.56;5042231;28;20040;-46
2023/01/20 07:53:34;;;;;;;60.28;21.90;;;;;;;0.94;100.00;101174.03;5042113;28;20028;-48
2023/01/20 07:56:05;;;;;;;42.05;19.08;;;;;;;1.00;100.00;101168.31;5042961;28;20037;-46
2023/01/20 07:58:30;;;;;;;47.25;21.48;;;;;;;0.94;100.00;101173.19;5038606;28;20029;-46
2023/01/20 08:00:56;;;;;;;51.58;20.73;;;;;;;0.82;100.00;101180.22;5043750;28;20036;-47
2023/01/20 08:03:21;;;;;;;44.45;19.95;;;;;;;0.75;100.00;101198.34;5046922;28;20021;-47
2023/01/20 08:05:47;;;;;;;39.03;19.45;;;;;;;0.71;100.00;101201.34;5045982;28;20037;-45
2023/01/20 08:08:12;;;;;;;52.55;20.85;;;;;;;0.68;100.00;101214.78;5044362;28;20412;-46
2023/01/20 08:10:38;;;;;;;48.70;20.40;;;;;;;0.57;100.00;101213.75;5047138;28;20049;-47
2023/01/20 08:13:03;;;;;;;47.10;19.10;;;;;;;0.55;100.00;101215.66;5042464;28;20022;-48
2023/01/20 08:15:29;;;;;;;47.17;20.42;;;;;;;0.59;100.00;101200.41;5047762;28;20033;-47
2023/01/20 08:17:54;;;;;;;42.20;19.35;;;;;;;0.52;100.00;101215.88;5045441;28;20064;-48
2023/01/20 08:20:20;;;;;;;46.05;20.92;;;;;;;0.52;100.00;101201.78;5046351;28;20021;-47
2023/01/20 08:22:45;;;;;;;50.08;19.63;;;;;;;0.57;100.00;101211.09;5047632;28;20104;-46
2023/01/20 08:25:11;;;;;;;46.60;20.67;;;;;;;0.56;100.00;101211.22;5048888;28;20086;-45
2023/01/20 08:27:36;;;;;;;49.70;20.70;;;;;;;0.53;100.00;101212.28;5047862;28;20441;-46
2023/01/20 08:30:01;;;;;;;46.67;20.20;;;;;;;0.51;100.00;101224.78;5044491;28;20413;-47
2023/01/20 08:32:28;;;;;;;51.17;20.27;;;;;;;0.47;100.00;101220.66;5044279;28;20384;-47
2023/01/20 08:34:53;;;;;;;57.67;23.48;;;;;;;0.48;100.00;101232.94;5045151;28;20041;-47
2023/01/20 08:37:19;;;;;;;55.15;22.90;;;;;;;0.49;100.00;101228.50;5046995;28;20021;-47
2023/01/20 08:39:44;;;;;;;46.28;22.02;;;;;;;0.52;100.00;101220.34;5047994;28;20021;-48
2023/01/20 08:42:10;;;;;;;48.17;20.77;;;;;;;0.50;100.00;101222.22;5044321;28;20028;-44
2023/01/20 08:44:35;;;;;;;51.15;21.02;;;;;;;0.51;100.00;101221.31;5042692;28;20048;-45
2023/01/20 08:47:01;;;;;;;56.13;22.45;;;;;;;0.44;100.00;101208.47;5044111;28;20111;-44
2023/01/20 08:49:28;;;;;;;57.10;22.17;;;;;;;0.35;100.00;101203.84;5045354;28;20087;-45
2023/01/20 08:51:55;;;;;;;54.78;23.50;;;;;;;0.29;100.00;101200.75;5043493;28;20021;-43
2023/01/20 08:54:21;;;;;;;65.07;24.52;;;;;;;0.27;100.00;101205.31;5045068;28;20028;-44
2023/01/20 08:56:49;;;;;;;61.00;24.38;;;;;;;0.30;100.00;101211.25;5045407;28;20075;-43
2023/01/20 08:59:15;;;;;;;58.53;23.48;;;;;;;0.35;100.00;101213.56;5047388;28;20020;-41
2023/01/20 09:01:41;;;;;;;54.33;22.67;;;;;;;0.29;100.00;101214.84;5047813;28;20032;-42
2023/01/20 09:04:07;;;;;;;67.28;25.48;;;;;;;0.27;100.00;101216.75;5046530;28;20079;-39
2023/01/20 09:06:44;;;;;;;58.72;25.20;;;;;;;0.35;100.00;101211.78;5047715;28;20053;-40
2023/01/20 09:09:09;;;;;;;60.10;25.02;;;;;;;0.41;100.00;101224.56;5044704;28;20108;-43
2023/01/20 09:11:35;;;;;;;57.63;24.48;;;;;;;0.44;100.00;101218.22;5045361;28;20031;-40
2023/01/20 09:14:00;;;;;;;60.92;24.83;;;;;;;0.51;100.00;101223.94;5042956;28;20436;-41
2023/01/20 09:16:26;;;;;;;54.10;23.13;;;;;;;0.50;100.00;101220.47;5041209;28;20088;-41
2023/01/20 09:18:51;;;;;;;49.80;22.95;;;;;;;0.50;100.00;101228.41;5040708;28;20044;-41
2023/01/20 09:21:17;;;;;;;57.33;22.70;;;;;;;0.52;100.00;101230.94;5044224;28;20029;-41
2023/01/20 09:23:42;;;;;;;52.92;22.05;;;;;;;0.52;100.00;101236.22;5041542;28;20219;-42
2023/01/20 09:26:08;;;;;;;50.67;21.38;;;;;;;0.49;100.00;101234.63;5041835;28;20025;-43
2023/01/20 09:28:34;;;;;;;45.38;21.60;;;;;;;0.53;100.00;101246.72;5041654;28;20037;-43
2023/01/20 09:31:03;;;;;;;49.55;21.70;;;;;;;0.55;100.00;101247.44;5042793;28;20064;-43
2023/01/20 09:33:28;;;;;;;49.83;21.98;;;;;;;0.63;100.00;101245.13;5040093;28;20102;-42
2023/01/20 09:35:57;;;;;;;48.95;20.73;;;;;;;0.61;100.00;101254.97;5040554;28;20489;-41
2023/01/20 09:44:18;;;;;;;49.65;19.00;;;;;;;0.73;100.00;101266.50;5041422;28;20048;-41
2023/01/20 09:47:18;;;;;;;53.78;20.13;;;;;;;0.76;100.00;101271.56;5042999;28;20410;-42
2023/01/20 09:55:38;;;;;;;51.85;20.27;;;;;;;0.84;100.00;101273.69;5043711;28;20079;-41
2023/01/20 09:58:31;;;;;;;45.83;20.73;;;;;;;0.96;100.00;101270.19;5042741;28;20376;-41
2023/01/20 10:01:09;;;;;;;45.17;20.73;;;;;;;0.95;100.00;101268.50;5039956;28;20034;-40
2023/01/20 10:03:41;;;;;;;53.38;22.27;;;;;;;1.01;100.00;101280.47;5037970;28;20092;-42
2023/01/20 10:06:12;;;;;;;61.88;23.02;;;;;;;1.08;100.00;101271.97;5040466;28;20052;-42
2023/01/20 10:08:50;;;;;;;61.25;23.75;;;;;;;1.24;100.00;101276.16;5049647;28;20020;-40
2023/01/20 10:11:17;;;;;;;59.50;23.23;;;;;;;1.35;100.00;101272.72;5048877;28;20126;-40
2023/01/20 10:13:55;;;;;;;60.60;22.40;;;;;;;1.42;100.00;101268.66;5033083;28;20036;-41
2023/01/20 10:16:32;;;;;;;55.38;22.70;;;;;;;1.40;100.00;101276.75;5038620;28;20032;-40
2023/01/20 10:19:05;;;;;;;49.23;20.60;;;;;;;1.43;100.00;101265.91;5050538;28;20048;-40
2023/01/20 10:21:39;;;;;;;53.95;21.20;;;;;;;1.50;100.00;101268.94;5046137;28;20076;-39
2023/01/20 10:24:26;;;;;;;49.00;20.55;;;;;;;1.64;100.00;101284.69;5028704;28;20040;-39
2023/01/20 10:27:03;;;;;;;48.42;19.98;;;;;;;1.74;100.00;101263.66;5031174;28;20080;-38
2023/01/20 10:29:37;;;;;;;43.85;17.33;;;;;;;1.80;100.00;101270.28;5034888;28;20025;-38
2023/01/20 10:32:28;;;;;;;40.72;17.92;;;;;;;1.90;100.00;101269.50;5049590;28;20036;-40
2023/01/20 10:34:56;;;;;;;42.42;18.40;;;;;;;2.13;100.00;101269.53;5039708;28;20053;-39
2023/01/20 10:37:22;;;;;;;41.60;17.90;;;;;;;2.39;100.00;101271.03;5042602;28;20063;-39
2023/01/20 10:39:55;;;;;;;39.97;17.40;;;;;;;2.58;100.00;101270.47;5042612;28;20065;-40
2023/01/20 10:42:20;;;;;;;47.33;17.85;;;;;;;2.67;100.00;101278.69;5049515;28;20480;-40
2023/01/20 10:44:47;;;;;;;37.42;17.08;;;;;;;2.76;100.00;101264.66;5047187;28;20032;-40
2023/01/20 10:47:24;;;;;;;39.45;16.58;;;;;;;2.73;100.00;101267.56;5047443;28;20041;-39
2023/01/20 10:49:59;;;;;;;36.88;14.80;;;;;;;2.68;100.00;101265.28;5048113;28;20025;-39
2023/01/20 10:52:31;;;;;;;33.78;14.48;;;;;;;2.77;100.00;101275.19;5045965;28;20058;-38
2023/01/20 10:55:18;;;;;;;22.20;5.93;;;;;;;2.88;100.00;101270.84;5061751;28;20085;-39
2023/01/20 10:57:48;;;;;;;19.13;4.03;;;;;;;2.92;100.00;101267.81;5046184;28;20057;-40
2023/01/20 11:00:21;;;;;;;23.42;3.78;;;;;;;2.95;100.00;101267.59;5044009;28;20454;-40
2023/01/20 11:02:48;;;;;;;13.25;3.95;;;;;;;2.98;100.00;101264.69;5042046;28;20441;-39
2023/01/20 11:05:17;;;;;;;14.48;2.90;;;;;;;2.96;100.00;101276.41;5050026;28;20584;-41
2023/01/20 11:07:44;;;;;;;13.93;3.45;;;;;;;2.97;100.00;101270.09;5046746;28;20084;-41
2023/01/20 11:10:15;;;;;;;14.55;3.30;;;;;;;3.05;100.00;101270.34;5031198;28;20072;-41
2023/01/20 11:12:42;;;;;;;15.02;2.88;;;;;;;3.13;100.00;101267.91;5032223;28;20021;-42
2023/01/20 11:15:19;;;;;;;20.90;3.45;;;;;;;3.17;100.00;101271.19;5049524;28;20024;-42
2023/01/20 11:17:45;;;;;;;21.58;3.88;;;;;;;3.15;100.00;101268.63;5050461;28;20392;-42
2023/01/20 11:20:18;;;;;;;22.65;3.90;;;;;;;3.15;100.00;101263.31;5049616;28;20025;-44
2023/01/20 11:22:45;;;;;;;24.73;5.07;;;;;;;3.07;100.00;101268.41;5050605;28;20035;-44
2023/01/20 11:25:22;;;;;;;21.52;3.92;;;;;;;2.98;100.00;101271.81;5049381;28;21085;-43
2023/01/20 11:27:48;;;;;;;26.33;3.75;;;;;;;3.07;100.00;101269.25;5050302;28;20078;-43